createdAt,value
2024-02-27T00:00:27.605Z,9.85
2024-02-27T00:02:54.696Z,9.86
2024-02-27T00:05:21.693Z,9.78
2024-02-27T00:07:48.620Z,9.73
2024-02-27T00:10:15.694Z,9.86
2024-02-27T00:12:42.806Z,9.49
2024-02-27T00:15:11.008Z,9.61
2024-02-27T00:17:38.036Z,9.34
2024-02-27T00:20:06.163Z,9.53
2024-02-27T00:22:33.189Z,9.32
2024-02-27T00:25:00.084Z,9.47
2024-02-27T00:27:27.076Z,9.55
2024-02-27T00:29:54.970Z,9.60
2024-02-27T00:32:22.004Z,9.46
2024-02-27T00:34:48.942Z,9.48
2024-02-27T00:37:15.861Z,9.56
2024-02-27T00:39:42.770Z,9.44
2024-02-27T00:42:09.776Z,9.60
2024-02-27T00:44:39.262Z,9.62
2024-02-27T00:47:06.322Z,9.65
2024-02-27T00:49:33.295Z,9.61
2024-02-27T00:52:00.247Z,9.58
2024-02-27T00:54:27.233Z,9.63
2024-02-27T00:56:54.229Z,9.65
2024-02-27T00:59:21.163Z,9.58
2024-02-27T01:01:48.081Z,9.46
2024-02-27T01:04:15.048Z,9.46
2024-02-27T01:06:42.062Z,9.45
2024-02-27T01:09:09.017Z,9.49
2024-02-27T01:11:36.217Z,9.58
2024-02-27T01:14:03.357Z,9.60
2024-02-27T01:16:30.267Z,9.62
2024-02-27T01:18:57.216Z,9.66
2024-02-27T01:21:24.196Z,9.46
2024-02-27T01:23:51.068Z,9.39
2024-02-27T01:26:17.928Z,9.58
2024-02-27T01:28:44.815Z,9.57
2024-02-27T01:31:11.851Z,9.38
2024-02-27T01:33:39.983Z,9.32
2024-02-27T01:36:07.617Z,9.14
2024-02-27T01:38:34.809Z,9.25
2024-02-27T01:41:01.727Z,9.18
2024-02-27T01:43:28.617Z,9.35
2024-02-27T01:46:10.890Z,9.35
2024-02-27T01:48:38.221Z,9.00
2024-02-27T01:51:05.979Z,8.98
2024-02-27T01:53:33.109Z,9.24
2024-02-27T01:56:00.222Z,9.28
2024-02-27T01:58:27.496Z,9.36
2024-02-27T02:00:54.656Z,9.25
2024-02-27T02:03:24.638Z,9.26
2024-02-27T02:05:52.293Z,9.25
2024-02-27T02:08:19.415Z,9.19
2024-02-27T02:10:46.347Z,8.97
2024-02-27T02:13:13.721Z,8.87
2024-02-27T02:15:40.773Z,9.20
2024-02-27T02:18:08.014Z,9.10
2024-02-27T02:20:34.993Z,9.09
2024-02-27T02:23:02.431Z,9.17
2024-02-27T02:25:34.027Z,9.22
2024-02-27T02:28:00.962Z,9.18
2024-02-27T02:30:28.046Z,9.22
2024-02-27T02:32:55.277Z,9.16
2024-02-27T02:35:22.388Z,9.29
2024-02-27T02:37:50.976Z,9.14
2024-02-27T02:40:20.836Z,9.09
2024-02-27T02:42:48.401Z,9.37
2024-02-27T02:45:16.096Z,9.32
2024-02-27T02:47:43.188Z,9.36
2024-02-27T02:50:11.494Z,9.39
2024-02-27T02:52:38.473Z,9.41
2024-02-27T02:55:07.009Z,9.20
2024-02-27T02:57:34.351Z,9.27
2024-02-27T03:00:02.364Z,9.29
2024-02-27T03:02:29.347Z,9.35
2024-02-27T03:04:56.239Z,9.36
2024-02-27T03:07:23.217Z,9.28
2024-02-27T03:09:50.085Z,9.35
2024-02-27T03:12:18.802Z,9.35
2024-02-27T03:14:47.252Z,9.13
2024-02-27T03:17:15.814Z,9.24
2024-02-27T03:19:43.503Z,9.34
2024-02-27T03:22:11.210Z,9.25
2024-02-27T03:24:38.575Z,9.21
2024-02-27T03:27:05.642Z,9.32
2024-02-27T03:29:32.667Z,9.36
2024-02-27T03:31:59.628Z,9.15
2024-02-27T03:34:27.547Z,9.21
2024-02-27T03:36:54.952Z,9.17
2024-02-27T03:39:22.032Z,9.24
2024-02-27T03:41:49.012Z,9.22
2024-02-27T03:44:15.941Z,9.06
2024-02-27T03:46:42.888Z,9.18
2024-02-27T03:49:09.957Z,9.07
2024-02-27T03:51:37.330Z,9.11
2024-02-27T03:54:05.230Z,9.07
2024-02-27T03:56:32.223Z,9.09
2024-02-27T03:58:59.170Z,9.02
2024-02-27T04:01:27.829Z,9.19
2024-02-27T04:03:54.808Z,9.24
2024-02-27T04:06:21.774Z,9.27
2024-02-27T04:08:48.735Z,9.32
2024-02-27T04:11:15.954Z,9.34
2024-02-27T04:13:42.875Z,9.39
2024-02-27T04:16:09.870Z,9.36
2024-02-27T04:18:36.870Z,9.34
2024-02-27T04:21:04.692Z,9.31
2024-02-27T04:23:31.680Z,9.22
2024-02-27T04:25:58.550Z,9.29
2024-02-27T04:28:25.529Z,9.34
2024-02-27T04:30:52.392Z,9.33
2024-02-27T04:33:19.452Z,9.18
2024-02-27T04:35:46.723Z,9.10
2024-02-27T04:38:13.719Z,9.20
2024-02-27T04:40:42.260Z,9.21
2024-02-27T04:43:09.395Z,9.20
2024-02-27T04:45:36.530Z,9.31
2024-02-27T04:48:05.703Z,9.33
2024-02-27T04:50:32.722Z,9.30
2024-02-27T04:53:01.151Z,9.34
2024-02-27T04:55:30.253Z,9.38
2024-02-27T04:57:57.732Z,9.37
2024-02-27T05:00:24.919Z,9.37
2024-02-27T05:02:51.863Z,9.38
2024-02-27T05:05:18.887Z,9.39
2024-02-27T05:07:45.942Z,9.37
2024-02-27T05:10:13.033Z,9.35
2024-02-27T05:12:39.904Z,9.40
2024-02-27T05:15:07.450Z,9.39
2024-02-27T05:17:34.390Z,9.35
2024-02-27T05:20:01.293Z,9.32
2024-02-27T05:22:28.182Z,9.33
2024-02-27T05:24:55.056Z,9.24
2024-02-27T05:27:21.997Z,9.29
2024-02-27T05:29:48.934Z,9.30
2024-02-27T05:32:15.811Z,9.31
2024-02-27T05:34:42.756Z,9.34
2024-02-27T05:37:09.833Z,9.33
2024-02-27T05:39:36.843Z,9.38
2024-02-27T05:42:04.181Z,9.30
2024-02-27T05:44:31.220Z,9.36
2024-02-27T05:46:58.117Z,9.23
2024-02-27T05:49:25.174Z,9.15
2024-02-27T05:51:52.104Z,9.12
2024-02-27T05:54:21.479Z,9.23
2024-02-27T05:56:49.044Z,9.14
2024-02-27T05:59:16.006Z,9.24
2024-02-27T06:01:42.902Z,9.28
2024-02-27T06:04:09.900Z,9.29
2024-02-27T06:06:36.990Z,9.27
2024-02-27T06:09:04.997Z,9.16
2024-02-27T06:11:31.998Z,9.27
2024-02-27T06:14:00.702Z,9.38
2024-02-27T06:16:27.642Z,9.45
2024-02-27T06:18:56.540Z,9.49
2024-02-27T06:21:42.393Z,9.49
2024-02-27T06:24:09.393Z,9.50
2024-02-27T06:26:36.453Z,9.48
2024-02-27T06:29:04.617Z,9.54
2024-02-27T06:31:31.638Z,9.39
2024-02-27T06:33:58.657Z,9.51
2024-02-27T06:36:25.776Z,9.60
2024-02-27T06:38:57.097Z,9.64
2024-02-27T06:41:25.205Z,9.48
2024-02-27T06:43:52.235Z,9.59
2024-02-27T06:46:19.147Z,9.55
2024-02-27T06:48:46.500Z,9.53
2024-02-27T06:51:13.714Z,9.44
2024-02-27T06:53:42.231Z,9.55
2024-02-27T06:56:09.214Z,9.65
2024-02-27T06:58:36.157Z,9.70
2024-02-27T07:01:03.112Z,9.56
2024-02-27T07:03:30.346Z,9.77
2024-02-27T07:05:58.909Z,9.88
2024-02-27T07:08:25.876Z,9.90
2024-02-27T07:10:52.757Z,9.99
2024-02-27T07:13:19.930Z,9.99
2024-02-27T07:15:47.973Z,10.01
2024-02-27T07:18:17.228Z,10.08
2024-02-27T07:20:44.695Z,10.04
2024-02-27T07:23:11.674Z,10.10
2024-02-27T07:25:38.587Z,10.26
2024-02-27T07:28:08.097Z,10.05
2024-02-27T07:30:36.524Z,10.16
2024-02-27T07:33:03.896Z,10.30
2024-02-27T07:35:30.919Z,10.52
2024-02-27T07:37:57.880Z,10.45
2024-02-27T07:40:24.829Z,10.57
2024-02-27T07:42:52.736Z,10.29
2024-02-27T07:45:19.676Z,10.60
2024-02-27T07:47:46.613Z,10.52
2024-02-27T07:50:13.568Z,10.71
2024-02-27T07:52:40.519Z,10.76
2024-02-27T07:55:07.904Z,10.88
2024-02-27T07:57:34.835Z,10.97
2024-02-27T08:00:01.972Z,10.98
2024-02-27T08:02:28.990Z,11.16
2024-02-27T08:04:55.866Z,11.11
2024-02-27T08:07:22.800Z,11.00
2024-02-27T08:09:49.927Z,10.90
2024-02-27T08:12:17.113Z,11.19
2024-02-27T08:14:43.991Z,11.55
2024-02-27T08:17:11.724Z,11.74
2024-02-27T08:19:40.679Z,12.11
2024-02-27T08:22:08.037Z,12.09
2024-02-27T08:24:35.125Z,12.26
2024-02-27T08:27:05.468Z,12.45
2024-02-27T08:29:33.835Z,12.58
2024-02-27T08:32:00.742Z,12.72
2024-02-27T08:34:28.035Z,12.85
2024-02-27T08:36:55.168Z,12.54
2024-02-27T08:39:22.129Z,12.85
2024-02-27T08:41:49.148Z,12.93
2024-02-27T08:44:16.062Z,12.81
2024-02-27T08:46:44.693Z,12.80
2024-02-27T08:49:11.701Z,12.85
2024-02-27T08:51:38.810Z,13.14
2024-02-27T08:54:05.882Z,13.21
2024-02-27T08:56:32.856Z,13.48
2024-02-27T08:58:59.890Z,13.67
2024-02-27T09:01:26.859Z,13.61
2024-02-27T09:03:53.998Z,13.58
2024-02-27T09:06:20.990Z,13.59
2024-02-27T09:08:47.979Z,13.73
2024-02-27T09:11:14.957Z,13.72
2024-02-27T09:13:41.855Z,13.77
2024-02-27T09:16:08.964Z,13.94
2024-02-27T09:18:36.542Z,13.62
2024-02-27T09:21:04.114Z,14.01
2024-02-27T09:23:31.097Z,14.12
2024-02-27T09:25:58.122Z,14.23
2024-02-27T09:28:25.051Z,14.34
2024-02-27T09:30:51.982Z,14.30
2024-02-27T09:33:19.028Z,14.32
2024-02-27T09:35:46.337Z,14.37
2024-02-27T09:38:13.247Z,14.57
2024-02-27T09:40:42.653Z,14.52
2024-02-27T09:43:24.234Z,14.56
2024-02-27T09:45:51.235Z,14.69
2024-02-27T09:48:21.721Z,14.57
2024-02-27T09:50:51.873Z,14.60
2024-02-27T09:53:21.108Z,14.34
2024-02-27T09:55:48.231Z,14.60
2024-02-27T09:58:17.439Z,14.35
2024-02-27T10:00:44.577Z,14.39
2024-02-27T10:03:13.070Z,14.33
2024-02-27T10:05:42.536Z,13.56
2024-02-27T10:08:21.199Z,13.44
2024-02-27T10:10:48.981Z,13.73
2024-02-27T10:13:15.925Z,13.70
2024-02-27T10:15:43.004Z,13.71
2024-02-27T10:18:10.192Z,13.81
2024-02-27T10:20:37.282Z,13.98
2024-02-27T10:23:05.273Z,13.92
2024-02-27T10:25:32.285Z,14.00
2024-02-27T10:28:00.603Z,14.07
2024-02-27T10:30:29.174Z,13.65
2024-02-27T10:32:56.319Z,13.69
2024-02-27T10:35:25.358Z,13.78
2024-02-27T10:37:52.603Z,13.62
2024-02-27T10:40:20.710Z,13.77
2024-02-27T10:42:48.810Z,13.67
2024-02-27T10:45:16.949Z,13.85
2024-02-27T10:47:47.327Z,13.58
2024-02-27T10:50:16.628Z,13.64
2024-02-27T10:52:45.417Z,13.58
2024-02-27T10:55:13.939Z,13.74
2024-02-27T10:57:41.763Z,13.82
2024-02-27T11:00:09.725Z,13.94
2024-02-27T11:02:42.009Z,13.96
2024-02-27T11:05:10.787Z,14.03
2024-02-27T11:07:37.796Z,13.79
2024-02-27T11:10:06.423Z,13.83
2024-02-27T11:12:36.543Z,13.99
2024-02-27T11:15:09.746Z,14.05
2024-02-27T11:17:47.747Z,14.04
2024-02-27T11:20:17.029Z,13.92
2024-02-27T11:22:46.081Z,14.23
2024-02-27T11:25:14.088Z,14.11
2024-02-27T11:27:41.973Z,13.84
2024-02-27T11:30:10.377Z,13.76
2024-02-27T11:32:39.147Z,13.75
2024-02-27T11:35:07.847Z,13.74
2024-02-27T11:37:35.929Z,13.55
2024-02-27T11:40:05.664Z,13.98
2024-02-27T11:42:44.707Z,14.37
2024-02-27T11:45:26.388Z,14.50
2024-02-27T11:47:53.864Z,14.76
2024-02-27T11:50:36.650Z,14.68
2024-02-27T11:53:19.257Z,14.84
2024-02-27T11:55:47.732Z,15.00
2024-02-27T11:58:15.933Z,15.30
2024-02-27T12:00:47.136Z,15.39
2024-02-27T12:03:14.570Z,15.32
2024-02-27T12:05:45.062Z,15.42
2024-02-27T12:08:12.048Z,14.97
2024-02-27T12:10:39.396Z,15.14
2024-02-27T12:13:06.262Z,15.40
2024-02-27T12:15:33.251Z,15.49
2024-02-27T12:18:00.438Z,15.82
2024-02-27T12:20:27.457Z,15.83
2024-02-27T12:22:54.822Z,15.77
2024-02-27T12:25:21.813Z,15.62
2024-02-27T12:27:55.096Z,15.51
2024-02-27T12:30:24.432Z,15.75
2024-02-27T12:32:52.412Z,15.57
2024-02-27T12:35:19.948Z,15.78
2024-02-27T12:37:50.760Z,15.90
2024-02-27T12:40:21.024Z,15.94
2024-02-27T12:42:51.653Z,16.07
2024-02-27T12:45:20.371Z,15.76
2024-02-27T12:47:51.704Z,15.55
2024-02-27T12:50:21.571Z,15.79
2024-02-27T12:52:58.718Z,16.27
2024-02-27T12:55:33.808Z,16.58
2024-02-27T12:58:00.942Z,16.45
2024-02-27T13:00:32.649Z,16.35
2024-02-27T13:02:59.873Z,16.58
2024-02-27T13:05:28.011Z,16.60
2024-02-27T13:07:56.901Z,16.40
2024-02-27T13:10:24.517Z,16.75
2024-02-27T13:13:11.866Z,16.04
2024-02-27T13:15:43.055Z,16.31
2024-02-27T13:18:13.628Z,16.54
2024-02-27T13:20:41.867Z,16.74
2024-02-27T13:23:17.009Z,16.84
2024-02-27T13:25:51.816Z,16.38
2024-02-27T13:28:19.754Z,16.29
2024-02-27T13:30:47.228Z,16.19
2024-02-27T13:33:14.448Z,15.65
2024-02-27T13:35:41.408Z,15.60
2024-02-27T13:38:08.329Z,15.82
2024-02-27T13:40:35.193Z,15.68
2024-02-27T13:43:03.936Z,15.09
2024-02-27T13:45:30.946Z,15.73
2024-02-27T13:47:57.914Z,15.86
2024-02-27T13:50:25.776Z,15.76
2024-02-27T13:52:52.705Z,16.30
2024-02-27T13:55:19.599Z,16.50
2024-02-27T13:57:46.607Z,16.37
2024-02-27T14:00:14.371Z,16.41
2024-02-27T14:02:41.892Z,16.34
2024-02-27T14:05:09.678Z,16.25
2024-02-27T14:07:38.056Z,16.16
2024-02-27T14:10:06.184Z,16.22
2024-02-27T14:12:33.642Z,16.29
2024-02-27T14:15:00.924Z,16.53
2024-02-27T14:17:27.877Z,16.47
2024-02-27T14:19:55.065Z,16.47
2024-02-27T14:22:23.067Z,16.63
2024-02-27T14:24:50.135Z,16.59
2024-02-27T14:27:17.159Z,16.88
2024-02-27T14:29:44.649Z,16.84
2024-02-27T14:32:11.754Z,16.91
2024-02-27T14:34:39.151Z,16.96
2024-02-27T14:37:06.656Z,17.14
2024-02-27T14:39:33.681Z,16.94
2024-02-27T14:42:00.717Z,17.06
2024-02-27T14:44:28.209Z,18.00
2024-02-27T14:46:55.668Z,18.40
2024-02-27T14:49:23.411Z,18.41
2024-02-27T14:51:56.528Z,18.50
2024-02-27T14:54:24.446Z,18.27
2024-02-27T14:56:52.550Z,18.31
2024-02-27T14:59:19.922Z,17.61
2024-02-27T15:01:53.865Z,17.70
2024-02-27T15:04:27.018Z,17.64
2024-02-27T15:06:54.169Z,17.78
2024-02-27T15:09:21.368Z,17.53
2024-02-27T15:11:48.256Z,17.20
2024-02-27T15:14:15.226Z,16.70
2024-02-27T15:16:42.218Z,16.51
2024-02-27T15:19:09.357Z,16.52
2024-02-27T15:21:36.766Z,16.61
2024-02-27T15:24:05.041Z,16.34
2024-02-27T15:26:32.209Z,16.26
2024-02-27T15:28:59.440Z,16.26
2024-02-27T15:31:26.436Z,16.25
2024-02-27T15:33:53.488Z,16.22
2024-02-27T15:36:20.781Z,16.00
2024-02-27T15:38:47.760Z,15.88
2024-02-27T15:41:14.780Z,15.67
2024-02-27T15:43:42.079Z,15.53
2024-02-27T15:46:10.512Z,15.31
2024-02-27T15:48:38.121Z,15.18
2024-02-27T15:51:09.662Z,14.82
2024-02-27T15:53:40.790Z,14.81
2024-02-27T15:56:09.113Z,14.89
2024-02-27T15:58:38.122Z,14.90
2024-02-27T16:01:06.437Z,14.80
2024-02-27T16:04:29.811Z,14.72
2024-02-27T16:07:12.566Z,14.72
2024-02-27T16:09:40.764Z,14.64
2024-02-27T16:12:18.388Z,14.59
2024-02-27T16:14:50.738Z,14.50
2024-02-27T16:17:18.798Z,14.38
2024-02-27T16:19:46.156Z,14.27
2024-02-27T16:22:13.428Z,14.16
2024-02-27T16:24:40.393Z,14.06
2024-02-27T16:27:07.427Z,13.99
2024-02-27T16:29:34.423Z,13.94
2024-02-27T16:32:01.759Z,13.91
2024-02-27T16:34:29.095Z,13.81
2024-02-27T16:36:58.807Z,13.75
2024-02-27T16:39:25.792Z,13.61
2024-02-27T16:41:52.787Z,13.51
2024-02-27T16:44:19.736Z,13.40
2024-02-27T16:46:47.277Z,13.29
2024-02-27T16:49:14.311Z,13.21
2024-02-27T16:51:41.407Z,13.10
2024-02-27T16:54:09.133Z,12.99
2024-02-27T16:56:37.311Z,12.87
2024-02-27T16:59:04.702Z,12.78
2024-02-27T17:01:31.763Z,12.63
2024-02-27T17:03:58.850Z,12.64
2024-02-27T17:06:27.614Z,12.57
2024-02-27T17:08:54.835Z,12.56
2024-02-27T17:11:21.778Z,12.47
2024-02-27T17:13:48.768Z,12.49
2024-02-27T17:16:15.657Z,12.44
2024-02-27T17:18:42.621Z,12.46
2024-02-27T17:21:09.835Z,12.41
2024-02-27T17:23:36.822Z,12.38
2024-02-27T17:26:04.737Z,12.33
2024-02-27T17:28:31.751Z,12.27
2024-02-27T17:30:58.740Z,12.21
2024-02-27T17:33:26.176Z,12.15
2024-02-27T17:35:53.344Z,12.11
2024-02-27T17:38:20.237Z,12.00
2024-02-27T17:40:47.192Z,11.96
2024-02-27T17:43:14.178Z,11.89
2024-02-27T17:45:41.170Z,11.86
2024-02-27T17:48:14.323Z,11.85
2024-02-27T17:50:41.878Z,11.81
2024-02-27T17:53:09.997Z,11.79
2024-02-27T17:55:36.947Z,11.73
2024-02-27T17:58:06.624Z,11.72
2024-02-27T18:00:33.777Z,11.60
2024-02-27T18:03:01.061Z,11.59
2024-02-27T18:05:28.096Z,11.50
2024-02-27T18:07:55.087Z,11.40
2024-02-27T18:10:21.968Z,11.36
2024-02-27T18:12:49.027Z,11.28
2024-02-27T18:15:20.052Z,11.23
2024-02-27T18:17:49.680Z,11.18
2024-02-27T18:20:17.174Z,11.14
2024-02-27T18:22:45.008Z,11.10
2024-02-27T18:25:13.172Z,11.07
2024-02-27T18:27:41.194Z,10.94
2024-02-27T18:30:10.355Z,10.91
2024-02-27T18:32:41.588Z,10.87
2024-02-27T18:35:09.437Z,10.79
2024-02-27T18:37:36.447Z,10.79
2024-02-27T18:40:05.635Z,10.85
2024-02-27T18:42:32.786Z,10.84
2024-02-27T18:44:59.732Z,10.77
2024-02-27T18:47:26.639Z,10.74
2024-02-27T18:49:53.809Z,10.68
2024-02-27T18:52:21.059Z,10.58
2024-02-27T18:54:48.682Z,10.56
2024-02-27T18:57:15.964Z,10.54
2024-02-27T18:59:43.042Z,10.55
2024-02-27T19:02:10.368Z,10.49
2024-02-27T19:04:37.294Z,10.47
2024-02-27T19:07:05.268Z,10.50
2024-02-27T19:09:32.418Z,10.45
2024-02-27T19:11:59.671Z,10.40
2024-02-27T19:14:26.854Z,10.40
2024-02-27T19:16:54.143Z,10.34
2024-02-27T19:19:21.080Z,10.26
2024-02-27T19:21:49.273Z,10.24
2024-02-27T19:24:17.495Z,10.23
2024-02-27T19:26:44.593Z,10.24
2024-02-27T19:29:11.501Z,10.21
2024-02-27T19:31:38.650Z,10.21
2024-02-27T19:34:05.708Z,10.25
2024-02-27T19:36:34.074Z,10.21
2024-02-27T19:39:02.603Z,10.20
2024-02-27T19:41:29.522Z,10.16
2024-02-27T19:43:56.404Z,10.12
2024-02-27T19:46:25.332Z,10.13
2024-02-27T19:48:52.449Z,10.12
2024-02-27T19:51:21.165Z,10.14
2024-02-27T19:53:49.849Z,10.12
2024-02-27T19:56:18.264Z,10.11
2024-02-27T19:58:45.389Z,10.08
2024-02-27T20:01:14.472Z,10.05
2024-02-27T20:03:42.064Z,10.05
2024-02-27T20:06:09.284Z,10.06
2024-02-27T20:08:37.147Z,10.03
2024-02-27T20:11:04.484Z,10.00
2024-02-27T20:13:31.543Z,9.95
2024-02-27T20:15:59.988Z,9.97
2024-02-27T20:18:27.107Z,9.98
2024-02-27T20:21:00.032Z,10.02
2024-02-27T20:23:26.922Z,10.09
2024-02-27T20:25:54.828Z,10.05
2024-02-27T20:28:21.848Z,10.01
2024-02-27T20:30:51.388Z,9.94
2024-02-27T20:33:18.701Z,9.94
2024-02-27T20:35:47.879Z,9.90
2024-02-27T20:38:17.529Z,9.89
2024-02-27T20:40:48.850Z,9.91
2024-02-27T20:43:15.744Z,9.93
2024-02-27T20:45:43.079Z,10.02
2024-02-27T20:48:10.521Z,10.08
2024-02-27T20:50:38.150Z,10.13
2024-02-27T20:53:05.197Z,10.15
2024-02-27T20:55:32.122Z,10.10
2024-02-27T20:57:59.129Z,10.05
2024-02-27T21:00:26.011Z,10.00
2024-02-27T21:02:53.544Z,9.97
2024-02-27T21:05:20.654Z,9.91
2024-02-27T21:07:47.629Z,9.96
2024-02-27T21:10:14.600Z,10.04
2024-02-27T21:12:41.557Z,10.05
2024-02-27T21:15:09.899Z,10.03
2024-02-27T21:17:36.968Z,10.09
2024-02-27T21:20:04.660Z,10.13
2024-02-27T21:22:31.522Z,10.07
2024-02-27T21:24:58.425Z,10.09
2024-02-27T21:27:25.368Z,10.10
2024-02-27T21:29:52.312Z,10.10
2024-02-27T21:32:19.211Z,10.15
2024-02-27T21:34:46.579Z,10.20
2024-02-27T21:37:13.576Z,10.23
2024-02-27T21:39:41.156Z,10.23
2024-02-27T21:42:08.300Z,10.26
2024-02-27T21:44:35.227Z,10.30
2024-02-27T21:47:02.195Z,10.36
2024-02-27T21:49:29.216Z,10.39
2024-02-27T21:52:02.573Z,10.39
2024-02-27T21:54:30.587Z,10.44
2024-02-27T21:56:57.732Z,10.48
2024-02-27T21:59:24.622Z,10.48
2024-02-27T22:01:51.999Z,10.51
2024-02-27T22:04:19.849Z,10.45
2024-02-27T22:06:47.563Z,10.43
2024-02-27T22:09:15.023Z,10.45
2024-02-27T22:11:42.506Z,10.44
2024-02-27T22:14:11.395Z,10.48
2024-02-27T22:16:38.449Z,10.54
2024-02-27T22:19:05.671Z,10.59
2024-02-27T22:21:32.690Z,10.61
2024-02-27T22:23:59.715Z,10.70
2024-02-27T22:26:26.662Z,10.72
2024-02-27T22:28:53.566Z,10.79
2024-02-27T22:31:20.470Z,10.86
2024-02-27T22:33:47.422Z,10.87
2024-02-27T22:36:15.525Z,10.88
2024-02-27T22:38:42.727Z,10.97
2024-02-27T22:41:10.914Z,11.00
2024-02-27T22:43:38.903Z,11.02
2024-02-27T22:46:06.145Z,10.98
2024-02-27T22:48:33.204Z,10.94
2024-02-27T22:51:00.151Z,11.02
2024-02-27T22:53:27.087Z,10.99
2024-02-27T22:55:54.038Z,11.00
2024-02-27T22:58:20.937Z,10.99
2024-02-27T23:00:47.924Z,11.00
2024-02-27T23:03:15.021Z,11.02
2024-02-27T23:05:42.034Z,10.97
2024-02-27T23:08:09.049Z,11.02
2024-02-27T23:10:36.016Z,11.02
2024-02-27T23:13:03.101Z,11.06
2024-02-27T23:15:30.045Z,10.94
2024-02-27T23:17:57.150Z,10.94
2024-02-27T23:20:24.929Z,10.95
2024-02-27T23:22:51.968Z,10.87
2024-02-27T23:25:19.245Z,10.85
2024-02-27T23:27:46.147Z,10.79
2024-02-27T23:30:13.103Z,10.83
2024-02-27T23:32:40.139Z,10.71
2024-02-27T23:35:07.485Z,10.61
2024-02-27T23:37:34.350Z,10.58
2024-02-27T23:40:01.230Z,10.55
2024-02-27T23:42:28.462Z,10.47
2024-02-27T23:44:56.017Z,10.36
2024-02-27T23:47:23.249Z,10.25
2024-02-27T23:49:50.205Z,10.10
2024-02-27T23:52:17.165Z,9.97
2024-02-27T23:54:44.364Z,9.96
2024-02-27T23:57:11.567Z,9.90
2024-02-27T23:59:38.578Z,9.81
